Makassar, Indonesia

12:47 PM WITA on April 22, 2015 (GMT +0800)
Hasanuddin | | Change Station
CLOSE
Current Station
Airport
Location: Makassar,
Elevation: 46 ft
Nearby Weather Stations

Elev 46 ft 5.06 °S, 119.55 °E | Updated 17 minutes ago

Partly Cloudy
Partly Cloudy
91 °F
Feels Like 105 °F
N
6
Wind Variable Wind from WSW
Gusts 22 mph

Today
High -- | Low -- °F
--% Chance of Precip.
Yesterday
High -- | Low -- °F
Precip. -- in
6:01 AM 5:59 PM
Waxing Crescent, 15% visible
Pressure 29.80 in
Visibility 6.2 miles
Clouds Few 2000 ft
Heat Index 105 °F
Dew Point 77 °F
Humidity 63%
Rainfall 0.00 in
Snow Depth Not available.
UV 14 out of 12
Pollen Not available.
Air Quality Not available.
Flu Activity Not available.
METAR WAAA 220430Z 25005G19KT 180V310 9999 FEW020 33/25 Q1009 NOSIG

More Conditions Fewer Conditions

Pressure 29.80 in
Visibility 6.2 miles
Clouds Few 2000 ft
Heat Index 105 °F
Dew Point 77 °F
Humidity 63%
Rainfall 0.00 in
Snow Depth Not available.
UV 14 out of 12
Pollen Not available.
Air Quality Not available.
Flu Activity Not available.
METAR WAAA 220430Z 25005G19KT 180V310 9999 FEW020 33/25 Q1009 NOSIG

More Conditions Fewer Conditions

10-Day Weather Forecast

Almanac

Astronomy

Apr. 22, 2015 Rise Set
Actual Time
Civil Twilight
Nautical Twilight
Astronomical Twilight
Moon
Length of Visible Light
Length of Day
Tomorrow will be .
, % of the Moon is Illuminated

Today's Extremes

Country Highs Country Lows

Community

WunderPhotos

Upload Photos

1,815,668 photos uploaded!

WunderBlogs® & News

Nearby

Air Quality

  Air Quality AQ Index Pollutant
Not available.

Snow Depth

Station Depth Elevation

Earthquake Activity

City Distance Mag. Time & Date
Minimum magnitude displayed is 2.5.

Coastal Water Temperatures

Place Temperature

Stations

Nearby Weather Stations

Station Location Temp. Windchill Dew Point Humidity Wind Precip. Elev Updated Type